Terminal Aerodrome Forecast
Issued by NWS

Home | Current Version | Previous Version | Graphics & Text | Print | Product List | Glossary On
Versions: 1 2 3 4 5 6 7 8 9 10 11 12 13 14 15 16 17
682
FTUS43 KABR 301125
TAFATY
TAF
KATY 301125Z 3012/0112 06013KT P6SM OVC200
     FM301600 05016G25KT P6SM OVC100
     FM010400 03009KT P6SM SKC=

USA.gov is the U.S. government's official web portal to all federal, state and local government web resources and services.